Time;durP1;ratioP1;P1;durP2;ratioP2;P2;SDS_P1;SDS_P2;PMS_P1;PMS_P2;Temp;Humidity;BMP_temperature;BMP_pressure;BME280_temperature;BME280_humidity;BME280_pressure;Samples;Min_cycle;Max_cycle;Signal;HPM_P1;HPM_P2
2023/03/13 00:00:55;;;;;;;0.40;0.40;;;8.40;99.90;;;;;;5055410;28;20285;-68
2023/03/13 00:03:21;;;;;;;2.53;0.93;;;8.30;99.90;;;;;;5055531;28;20247;-68
2023/03/13 00:05:47;;;;;;;0.40;0.40;;;8.20;99.90;;;;;;5055578;28;20189;-68
2023/03/13 00:08:12;;;;;;;0.40;0.40;;;8.20;99.90;;;;;;5037878;28;20282;-68
2023/03/13 00:10:39;;;;;;;0.30;0.30;;;8.10;99.90;;;;;;5055452;28;20209;-68
2023/03/13 00:13:06;;;;;;;1.02;1.02;;;8.10;99.90;;;;;;5055515;28;20225;-68
2023/03/13 00:15:32;;;;;;;0.30;0.30;;;8.00;99.90;;;;;;5055206;28;20239;-68
2023/03/13 00:17:58;;;;;;;0.40;0.40;;;8.10;99.90;;;;;;5054701;28;20181;-68
2023/03/13 00:20:24;;;;;;;0.37;0.37;;;8.00;99.90;;;;;;5055296;28;20178;-68
2023/03/13 00:22:49;;;;;;;0.30;0.30;;;8.10;99.90;;;;;;5055600;28;20461;-68
2023/03/13 00:25:15;;;;;;;2.30;0.90;;;8.00;99.90;;;;;;5054956;28;20455;-68
2023/03/13 00:27:41;;;;;;;0.67;0.67;;;8.00;99.90;;;;;;5055567;28;20571;-68
2023/03/13 00:30:07;;;;;;;0.33;0.33;;;8.00;99.90;;;;;;5054810;28;20620;-68
2023/03/13 00:32:33;;;;;;;0.40;0.40;;;8.00;99.90;;;;;;5054583;28;20470;-69
2023/03/13 00:34:58;;;;;;;0.30;0.30;;;8.00;99.90;;;;;;5055086;28;20529;-68
2023/03/13 00:37:24;;;;;;;0.30;0.30;;;8.00;99.90;;;;;;5055270;28;20170;-68
2023/03/13 00:39:49;;;;;;;0.33;0.33;;;8.00;99.90;;;;;;5055256;28;20187;-68
2023/03/13 00:42:15;;;;;;;0.40;0.40;;;8.00;99.90;;;;;;5054364;28;20541;-68
2023/03/13 00:44:40;;;;;;;0.50;0.50;;;8.00;99.90;;;;;;5054660;28;20173;-68
2023/03/13 00:47:06;;;;;;;7.00;3.07;;;8.10;99.90;;;;;;5054949;28;20178;-68
2023/03/13 00:49:32;;;;;;;0.40;0.40;;;8.10;99.90;;;;;;5054429;28;20194;-68
2023/03/13 00:51:58;;;;;;;0.50;0.50;;;8.20;99.90;;;;;;5054707;28;20186;-68
2023/03/13 00:54:23;;;;;;;4.80;2.40;;;8.20;99.90;;;;;;5054851;28;20882;-68
2023/03/13 00:56:49;;;;;;;12.70;0.93;;;8.20;99.90;;;;;;5055013;28;20311;-68
2023/03/13 00:59:15;;;;;;;0.40;0.40;;;8.40;99.90;;;;;;5055065;28;20259;-68
2023/03/13 01:01:40;;;;;;;0.40;0.40;;;8.40;99.90;;;;;;5036394;28;20711;-68
2023/03/13 01:04:09;;;;;;;0.40;0.40;;;8.40;99.90;;;;;;5054586;28;20248;-68
2023/03/13 01:06:39;;;;;;;0.30;0.30;;;8.40;99.90;;;;;;5054610;28;20181;-68
2023/03/13 01:09:06;;;;;;;0.30;0.30;;;8.30;99.90;;;;;;5054723;28;20205;-68
2023/03/13 01:11:34;;;;;;;0.50;0.50;;;8.20;99.90;;;;;;5054158;28;20166;-68
2023/03/13 01:14:03;;;;;;;0.70;0.70;;;8.30;99.90;;;;;;5054354;28;20233;-68
2023/03/13 01:16:31;;;;;;;0.30;0.30;;;8.30;99.90;;;;;;5054063;28;20511;-68
2023/03/13 01:19:00;;;;;;;0.40;0.40;;;8.30;99.90;;;;;;5054317;28;20608;-68
2023/03/13 01:21:27;;;;;;;0.30;0.30;;;8.40;99.90;;;;;;5053901;28;20658;-68
2023/03/13 01:23:53;;;;;;;0.30;0.30;;;8.40;99.90;;;;;;5053842;28;20205;-68
2023/03/13 01:26:20;;;;;;;0.40;0.40;;;8.40;99.90;;;;;;5054395;28;20170;-68
2023/03/13 01:28:46;;;;;;;0.30;0.30;;;8.40;99.90;;;;;;5053540;28;20181;-68
2023/03/13 01:31:17;;;;;;;0.40;0.40;;;8.50;99.90;;;;;;5053163;28;20201;-68
2023/03/13 01:33:44;;;;;;;0.50;0.50;;;8.60;99.90;;;;;;5053740;28;21066;-68
2023/03/13 01:36:10;;;;;;;0.40;0.40;;;8.60;99.90;;;;;;5054212;28;20182;-68
2023/03/13 01:38:37;;;;;;;0.30;0.30;;;8.60;99.90;;;;;;5054271;28;20252;-68
2023/03/13 01:41:04;;;;;;;0.85;0.60;;;8.70;99.90;;;;;;5053516;28;20181;-68
2023/03/13 01:43:32;;;;;;;0.45;0.40;;;8.70;99.90;;;;;;5053755;28;20229;-68
2023/03/13 01:46:06;;;;;;;0.30;0.30;;;8.70;99.90;;;;;;5053742;28;20708;-68
2023/03/13 01:48:40;;;;;;;0.40;0.40;;;8.80;99.90;;;;;;5053938;28;20177;-68
2023/03/13 01:51:10;;;;;;;0.47;0.47;;;8.80;99.90;;;;;;5053560;28;20196;-68
2023/03/13 01:53:40;;;;;;;0.40;0.40;;;8.80;99.90;;;;;;5053446;28;20198;-68
2023/03/13 01:56:09;;;;;;;0.40;0.40;;;8.90;99.90;;;;;;5053813;28;20218;-68
2023/03/13 01:58:36;;;;;;;0.65;0.65;;;8.90;99.90;;;;;;5053333;28;20171;-68
2023/03/13 02:01:04;;;;;;;0.40;0.40;;;8.90;99.90;;;;;;5053471;28;20256;-68
2023/03/13 02:03:30;;;;;;;0.30;0.30;;;9.00;99.90;;;;;;5053431;28;20197;-68
2023/03/13 02:05:58;;;;;;;0.65;0.65;;;9.00;99.90;;;;;;5053275;28;20186;-68
2023/03/13 02:08:39;;;;;;;0.30;0.30;;;9.00;99.90;;;;;;5053406;28;20165;-68
2023/03/13 02:11:27;;;;;;;0.30;0.30;;;8.90;99.90;;;;;;5053169;28;20740;-68
2023/03/13 02:13:54;;;;;;;0.30;0.30;;;9.00;99.90;;;;;;5053055;28;20234;-68
2023/03/13 02:16:20;;;;;;;0.30;0.30;;;9.00;99.90;;;;;;5053172;28;20623;-68
2023/03/13 02:18:47;;;;;;;0.60;0.60;;;9.10;99.90;;;;;;5053313;28;20174;-68
2023/03/13 02:21:32;;;;;;;0.30;0.30;;;9.00;99.90;;;;;;5052907;28;20189;-68
2023/03/13 02:24:08;;;;;;;0.30;0.30;;;9.00;99.90;;;;;;5053656;28;20190;-68
2023/03/13 02:26:34;;;;;;;0.30;0.30;;;9.00;99.90;;;;;;5053869;28;20561;-68
2023/03/13 02:29:00;;;;;;;0.50;0.50;;;9.00;99.90;;;;;;5053085;28;20178;-68
2023/03/13 02:31:26;;;;;;;0.30;0.30;;;9.00;99.90;;;;;;5053098;28;20249;-68
2023/03/13 02:33:53;;;;;;;0.30;0.30;;;8.90;99.90;;;;;;5053171;28;20208;-68
2023/03/13 02:36:19;;;;;;;0.30;0.30;;;8.90;99.90;;;;;;5053062;28;20401;-68
2023/03/13 02:38:56;;;;;;;1.33;1.33;;;8.70;99.90;;;;;;5052946;28;20229;-68
2023/03/13 02:41:23;;;;;;;0.40;0.40;;;8.60;99.90;;;;;;5055322;28;20391;-68
2023/03/13 02:43:49;;;;;;;0.40;0.40;;;8.60;99.90;;;;;;5057090;28;20190;-68
2023/03/13 02:46:18;;;;;;;0.40;0.40;;;8.60;99.90;;;;;;5057141;28;20182;-68
2023/03/13 02:48:46;;;;;;;0.40;0.40;;;8.60;99.90;;;;;;5057475;28;20526;-68
2023/03/13 02:51:19;;;;;;;0.30;0.30;;;8.70;99.90;;;;;;5056693;28;20213;-68
2023/03/13 02:53:49;;;;;;;1.20;1.20;;;8.70;99.90;;;;;;5056576;28;20538;-68
2023/03/13 02:56:19;;;;;;;0.40;0.40;;;8.70;99.90;;;;;;5056851;28;20200;-68
2023/03/13 02:58:44;;;;;;;0.80;0.75;;;8.70;99.90;;;;;;5057047;28;20170;-68
2023/03/13 03:01:10;;;;;;;0.63;0.63;;;8.80;99.90;;;;;;5056487;28;20235;-68
2023/03/13 03:03:36;;;;;;;0.33;0.33;;;8.70;99.90;;;;;;5056545;28;20309;-68
2023/03/13 03:06:04;;;;;;;0.30;0.30;;;8.90;99.90;;;;;;5057189;28;20619;-68
2023/03/13 03:08:30;;;;;;;1.35;0.60;;;8.90;99.90;;;;;;5056900;28;20412;-68
2023/03/13 03:10:55;;;;;;;0.40;0.40;;;8.90;99.90;;;;;;5056225;28;20206;-68
2023/03/13 03:13:21;;;;;;;0.40;0.40;;;8.90;99.90;;;;;;5038709;28;20244;-68
2023/03/13 03:15:47;;;;;;;0.30;0.30;;;9.00;99.90;;;;;;5056721;28;20170;-68
2023/03/13 03:18:12;;;;;;;0.40;0.40;;;9.10;99.90;;;;;;5056460;28;20400;-68
2023/03/13 03:20:38;;;;;;;0.30;0.30;;;9.20;99.90;;;;;;5056494;28;20177;-68
2023/03/13 03:23:04;;;;;;;0.40;0.40;;;9.30;99.90;;;;;;5038302;28;20190;-68
2023/03/13 03:25:29;;;;;;;0.40;0.40;;;9.30;99.90;;;;;;5056328;28;20201;-68
2023/03/13 03:27:55;;;;;;;1.70;0.60;;;9.30;99.90;;;;;;5056428;28;20567;-68
2023/03/13 03:30:21;;;;;;;0.30;0.30;;;9.30;99.90;;;;;;5056298;28;20218;-68
2023/03/13 03:32:46;;;;;;;0.30;0.30;;;9.40;99.90;;;;;;5056046;28;20186;-68
2023/03/13 03:35:12;;;;;;;0.40;0.40;;;9.40;99.90;;;;;;5056614;28;20729;-68
2023/03/13 03:37:38;;;;;;;0.40;0.40;;;9.40;99.90;;;;;;5056181;28;20166;-68
2023/03/13 03:40:05;;;;;;;0.30;0.30;;;9.40;99.90;;;;;;5056107;28;20173;-68
2023/03/13 03:42:31;;;;;;;0.43;0.43;;;9.40;99.90;;;;;;5055805;28;20186;-68
2023/03/13 03:44:57;;;;;;;0.30;0.30;;;9.40;99.90;;;;;;5056317;28;20174;-68
2023/03/13 03:47:22;;;;;;;0.83;0.83;;;9.40;99.90;;;;;;5056291;28;20873;-68
2023/03/13 03:49:48;;;;;;;0.40;0.40;;;9.40;99.90;;;;;;5055697;28;20222;-68
2023/03/13 03:52:13;;;;;;;0.30;0.30;;;9.40;99.90;;;;;;5036571;28;20265;-68
2023/03/13 03:54:39;;;;;;;0.30;0.30;;;9.40;99.90;;;;;;5056010;28;20181;-68
2023/03/13 03:57:05;;;;;;;0.40;0.40;;;9.50;99.90;;;;;;5055883;28;20175;-68
2023/03/13 03:59:30;;;;;;;0.40;0.40;;;9.50;99.90;;;;;;5055672;28;20181;-68
2023/03/13 04:01:56;;;;;;;0.60;0.60;;;9.40;99.90;;;;;;5055235;28;20210;-68
2023/03/13 04:04:22;;;;;;;0.40;0.40;;;9.40;99.90;;;;;;5056040;28;20269;-68
2023/03/13 04:06:47;;;;;;;0.40;0.40;;;9.40;99.90;;;;;;5055729;28;20182;-68
2023/03/13 04:09:13;;;;;;;0.30;0.30;;;9.50;99.90;;;;;;5055544;28;20613;-68
2023/03/13 04:11:39;;;;;;;0.37;0.37;;;9.50;99.90;;;;;;5055563;28;20262;-68
2023/03/13 04:14:04;;;;;;;0.37;0.37;;;9.50;99.90;;;;;;5037766;28;20926;-68
2023/03/13 04:16:30;;;;;;;0.30;0.30;;;9.50;99.90;;;;;;5055562;28;20631;-68
2023/03/13 04:18:55;;;;;;;0.40;0.40;;;9.50;99.90;;;;;;5037560;28;20170;-68
2023/03/13 04:21:21;;;;;;;0.40;0.40;;;9.50;99.90;;;;;;5037170;28;20280;-68
2023/03/13 04:23:47;;;;;;;0.40;0.40;;;9.50;99.90;;;;;;5055263;28;20281;-68
2023/03/13 04:26:12;;;;;;;0.50;0.50;;;9.50;99.90;;;;;;5055317;28;20177;-68
2023/03/13 04:28:38;;;;;;;0.30;0.30;;;9.40;99.90;;;;;;5055365;28;20182;-68
2023/03/13 04:31:04;;;;;;;1.43;0.63;;;9.40;99.90;;;;;;5054985;28;20340;-68
2023/03/13 04:33:29;;;;;;;0.73;0.40;;;9.40;99.90;;;;;;5055154;28;20213;-68
2023/03/13 04:35:55;;;;;;;0.37;0.37;;;9.40;99.90;;;;;;5054897;28;20285;-68
2023/03/13 04:38:22;;;;;;;0.30;0.30;;;9.40;99.90;;;;;;5054874;28;20194;-68
2023/03/13 04:40:47;;;;;;;0.30;0.30;;;9.40;99.90;;;;;;5054696;28;20178;-68
2023/03/13 04:43:13;;;;;;;0.40;0.40;;;9.40;99.90;;;;;;5054665;28;20265;-68
2023/03/13 04:45:38;;;;;;;0.30;0.30;;;9.40;99.90;;;;;;5055144;28;20684;-68
2023/03/13 04:48:04;;;;;;;0.73;0.73;;;9.40;99.90;;;;;;5054589;28;20215;-68
2023/03/13 04:50:30;;;;;;;0.90;0.50;;;9.40;99.90;;;;;;5054252;28;20210;-68
2023/03/13 04:52:55;;;;;;;0.50;0.50;;;9.40;99.90;;;;;;5054452;28;20182;-68
2023/03/13 04:55:21;;;;;;;0.30;0.30;;;9.40;99.90;;;;;;5054891;28;20490;-68
2023/03/13 04:57:47;;;;;;;1.77;0.60;;;9.40;99.90;;;;;;5054788;28;20581;-68
2023/03/13 05:00:13;;;;;;;0.30;0.30;;;9.40;99.90;;;;;;5054600;28;20170;-68
2023/03/13 05:02:39;;;;;;;0.40;0.40;;;9.50;99.90;;;;;;5054716;28;20190;-68
2023/03/13 05:05:04;;;;;;;0.30;0.30;;;9.40;99.90;;;;;;5054156;28;20320;-68
2023/03/13 05:07:30;;;;;;;0.30;0.30;;;9.40;99.90;;;;;;5054565;28;20170;-68
2023/03/13 05:09:56;;;;;;;0.30;0.30;;;9.50;99.90;;;;;;5054539;28;20521;-68
2023/03/13 05:12:21;;;;;;;0.30;0.30;;;9.50;99.90;;;;;;5054057;28;20163;-68
2023/03/13 05:14:49;;;;;;;0.30;0.30;;;9.50;99.90;;;;;;5054587;28;20171;-68
2023/03/13 05:17:16;;;;;;;0.40;0.40;;;9.50;99.90;;;;;;5054598;28;20169;-68
2023/03/13 05:19:42;;;;;;;0.40;0.40;;;9.60;99.90;;;;;;5054037;28;20256;-68
2023/03/13 05:22:08;;;;;;;0.60;0.60;;;9.60;99.90;;;;;;5053756;28;20270;-68
2023/03/13 05:24:33;;;;;;;2.33;1.60;;;9.70;99.90;;;;;;5054289;28;20173;-68
2023/03/13 05:26:59;;;;;;;0.30;0.30;;;9.80;99.90;;;;;;5054254;28;20413;-68
2023/03/13 05:29:25;;;;;;;0.30;0.30;;;9.80;99.90;;;;;;5054386;28;20202;-68
2023/03/13 05:31:51;;;;;;;0.30;0.30;;;9.90;99.90;;;;;;5053720;28;20205;-68
2023/03/13 05:34:17;;;;;;;0.30;0.30;;;9.80;99.90;;;;;;5053829;28;20237;-68
2023/03/13 05:36:42;;;;;;;0.30;0.30;;;9.80;99.90;;;;;;5054112;28;20675;-68
2023/03/13 05:39:08;;;;;;;0.30;0.30;;;9.80;99.90;;;;;;5053980;28;20170;-68
2023/03/13 05:41:33;;;;;;;0.30;0.30;;;9.80;99.90;;;;;;5053618;28;20167;-68
2023/03/13 05:43:59;;;;;;;0.33;0.33;;;9.80;99.90;;;;;;5054119;28;20193;-68
2023/03/13 05:46:25;;;;;;;0.50;0.50;;;9.70;99.90;;;;;;5054179;28;20621;-68
2023/03/13 05:48:51;;;;;;;0.30;0.30;;;9.80;99.90;;;;;;5053567;28;20400;-68
2023/03/13 05:51:17;;;;;;;1.70;1.35;;;9.70;99.90;;;;;;5035291;28;20258;-68
2023/03/13 05:53:43;;;;;;;0.30;0.30;;;9.70;99.90;;;;;;5053450;28;20658;-68
2023/03/13 05:56:09;;;;;;;0.40;0.40;;;9.60;99.90;;;;;;5053794;28;20465;-68
2023/03/13 05:58:34;;;;;;;0.37;0.37;;;9.60;99.90;;;;;;5053404;28;20461;-68
2023/03/13 06:01:06;;;;;;;0.40;0.40;;;9.60;99.90;;;;;;5053486;28;20635;-68
2023/03/13 06:03:31;;;;;;;0.30;0.30;;;9.70;99.90;;;;;;5053428;28;20208;-68
2023/03/13 06:05:58;;;;;;;0.30;0.30;;;9.80;99.90;;;;;;5053818;28;20174;-68
2023/03/13 06:08:23;;;;;;;0.30;0.30;;;9.80;99.90;;;;;;5053570;28;20172;-68
2023/03/13 06:10:49;;;;;;;0.30;0.30;;;9.90;99.90;;;;;;5053186;28;20620;-68
2023/03/13 06:13:15;;;;;;;0.30;0.30;;;9.80;99.90;;;;;;5053279;28;20185;-68
2023/03/13 06:15:40;;;;;;;0.30;0.30;;;9.70;99.90;;;;;;5035481;28;20166;-68
2023/03/13 06:18:06;;;;;;;0.40;0.40;;;9.80;99.90;;;;;;5035558;28;20170;-68
2023/03/13 06:20:31;;;;;;;0.30;0.30;;;9.80;99.90;;;;;;5052998;28;20177;-68
2023/03/13 06:22:57;;;;;;;0.40;0.40;;;9.80;99.90;;;;;;5053416;28;20190;-68
2023/03/13 06:25:24;;;;;;;0.30;0.30;;;9.90;99.90;;;;;;5053519;28;20167;-68
2023/03/13 06:27:50;;;;;;;0.40;0.40;;;9.90;99.90;;;;;;5053573;28;20647;-68
2023/03/13 06:30:16;;;;;;;0.30;0.30;;;9.90;99.90;;;;;;5053414;28;20202;-68
2023/03/13 06:32:41;;;;;;;0.30;0.30;;;9.90;99.90;;;;;;5053126;28;20603;-68
2023/03/13 06:35:07;;;;;;;0.30;0.30;;;10.00;99.90;;;;;;5053246;28;20401;-68
2023/03/13 06:37:33;;;;;;;1.33;1.00;;;10.00;99.90;;;;;;5053443;28;20174;-68
2023/03/13 06:39:58;;;;;;;0.30;0.30;;;10.00;99.90;;;;;;5053385;28;20459;-68
2023/03/13 06:42:24;;;;;;;0.40;0.40;;;10.00;99.90;;;;;;5035471;28;20237;-68
2023/03/13 06:44:50;;;;;;;0.30;0.30;;;10.00;99.90;;;;;;5053622;28;20182;-68
2023/03/13 06:47:15;;;;;;;0.30;0.30;;;10.00;99.90;;;;;;5053007;28;20499;-68
2023/03/13 06:49:41;;;;;;;0.30;0.30;;;10.00;99.90;;;;;;5053012;28;20198;-68
2023/03/13 06:52:07;;;;;;;0.47;0.47;;;10.10;99.90;;;;;;5052948;28;20174;-68
2023/03/13 06:54:33;;;;;;;0.30;0.30;;;10.10;99.90;;;;;;5052749;28;20197;-68
2023/03/13 06:56:58;;;;;;;0.70;0.70;;;10.10;99.90;;;;;;5053326;28;20877;-68
2023/03/13 06:59:24;;;;;;;0.30;0.30;;;10.10;99.90;;;;;;5053415;28;20170;-68
2023/03/13 07:01:50;;;;;;;1.17;0.93;;;10.20;99.90;;;;;;5052864;28;20578;-68
2023/03/13 07:04:15;;;;;;;0.40;0.40;;;10.20;99.90;;;;;;5052897;28;20190;-68
2023/03/13 07:06:41;;;;;;;0.87;0.50;;;10.20;99.90;;;;;;5053056;28;20171;-68
2023/03/13 07:09:06;;;;;;;0.30;0.30;;;10.30;99.90;;;;;;5053268;28;20253;-68
2023/03/13 07:11:32;;;;;;;0.70;0.40;;;10.30;99.90;;;;;;5052597;28;20662;-68
2023/03/13 07:14:00;;;;;;;0.30;0.30;;;10.30;99.90;;;;;;5052632;28;20601;-68
2023/03/13 07:16:26;;;;;;;0.30;0.30;;;10.40;99.90;;;;;;5052715;28;20208;-68
2023/03/13 07:18:52;;;;;;;0.30;0.30;;;10.50;99.90;;;;;;5052901;28;20206;-68
2023/03/13 07:21:18;;;;;;;0.77;0.40;;;10.40;99.90;;;;;;5052512;28;20403;-68
2023/03/13 07:23:43;;;;;;;0.30;0.30;;;10.50;99.90;;;;;;5053036;28;20182;-68
2023/03/13 07:26:12;;;;;;;0.30;0.30;;;10.50;99.90;;;;;;5053074;28;20180;-68
2023/03/13 07:28:37;;;;;;;0.38;0.38;;;10.50;99.90;;;;;;5055118;28;20397;-68
2023/03/13 07:31:15;;;;;;;0.50;0.50;;;10.60;99.90;;;;;;5055922;28;20259;-68
2023/03/13 07:33:41;;;;;;;0.40;0.40;;;10.60;99.90;;;;;;5056103;28;20300;-68
2023/03/13 07:36:08;;;;;;;0.40;0.40;;;10.70;99.90;;;;;;5056338;28;20432;-68
2023/03/13 07:38:34;;;;;;;0.40;0.40;;;10.80;99.90;;;;;;5056422;28;20715;-68
2023/03/13 07:41:00;;;;;;;0.30;0.30;;;10.80;99.90;;;;;;5056079;28;20495;-68
2023/03/13 07:43:26;;;;;;;0.40;0.40;;;10.80;99.90;;;;;;5055723;28;20194;-68
2023/03/13 07:45:55;;;;;;;0.30;0.30;;;10.80;99.90;;;;;;5056108;28;20393;-68
2023/03/13 07:48:22;;;;;;;0.30;0.30;;;10.90;99.90;;;;;;5038215;28;20170;-68
2023/03/13 07:50:48;;;;;;;0.30;0.30;;;11.00;99.90;;;;;;5055504;28;20484;-68
2023/03/13 07:53:19;;;;;;;0.63;0.63;;;11.10;99.90;;;;;;5055707;28;20448;-68
2023/03/13 07:55:51;;;;;;;0.30;0.30;;;11.30;99.90;;;;;;5056249;28;20480;-68
2023/03/13 07:58:17;;;;;;;0.30;0.30;;;11.30;99.90;;;;;;5055818;28;20401;-68
2023/03/13 08:00:42;;;;;;;0.33;0.33;;;11.50;99.90;;;;;;5055386;28;20494;-68
2023/03/13 08:03:09;;;;;;;0.30;0.30;;;11.60;99.90;;;;;;5055634;28;20186;-68
2023/03/13 08:05:35;;;;;;;1.27;1.03;;;11.70;99.90;;;;;;5055965;28;20171;-68
2023/03/13 08:08:00;;;;;;;0.50;0.50;;;11.90;99.90;;;;;;5056000;28;20919;-68
2023/03/13 08:10:26;;;;;;;0.30;0.30;;;12.10;99.90;;;;;;5055471;28;20201;-69
2023/03/13 08:12:51;;;;;;;0.40;0.40;;;12.30;99.90;;;;;;5055365;28;20210;-68
2023/03/13 08:15:20;;;;;;;0.60;0.57;;;12.40;99.90;;;;;;5055765;28;20253;-68
2023/03/13 08:17:46;;;;;;;1.23;1.23;;;12.60;99.90;;;;;;5055576;28;20163;-68
2023/03/13 08:20:12;;;;;;;0.37;0.37;;;12.80;99.90;;;;;;5055468;28;20409;-69
2023/03/13 08:22:37;;;;;;;0.40;0.40;;;12.80;99.90;;;;;;5055167;28;20188;-68
2023/03/13 08:25:03;;;;;;;2.10;0.70;;;12.90;99.90;;;;;;5055111;28;20235;-68
2023/03/13 08:27:29;;;;;;;0.30;0.30;;;13.00;99.90;;;;;;5055092;28;20270;-69
2023/03/13 08:29:55;;;;;;;0.40;0.40;;;13.00;99.90;;;;;;5055226;28;20535;-68
2023/03/13 08:32:20;;;;;;;0.40;0.40;;;13.00;99.90;;;;;;5054969;28;20181;-68
2023/03/13 08:34:46;;;;;;;0.83;0.83;;;13.00;99.90;;;;;;5054894;28;20197;-68
2023/03/13 08:37:15;;;;;;;2.50;1.43;;;13.10;99.90;;;;;;5055415;28;20173;-68
2023/03/13 08:39:40;;;;;;;0.40;0.40;;;13.10;99.90;;;;;;5054332;28;20231;-68
2023/03/13 08:42:10;;;;;;;0.30;0.30;;;13.20;99.90;;;;;;5054675;28;20400;-68
2023/03/13 08:44:35;;;;;;;0.37;0.37;;;13.20;99.90;;;;;;5055045;28;20171;-69
2023/03/13 08:47:04;;;;;;;0.40;0.40;;;13.30;99.90;;;;;;5055078;28;20542;-69
2023/03/13 08:49:29;;;;;;;0.30;0.30;;;13.40;99.90;;;;;;5055014;28;20197;-68
2023/03/13 08:51:55;;;;;;;0.60;0.60;;;13.50;99.80;;;;;;5055054;28;20418;-68
2023/03/13 08:54:21;;;;;;;0.40;0.40;;;13.70;99.40;;;;;;5054535;28;20700;-68
2023/03/13 08:56:46;;;;;;;7.63;1.27;;;13.70;99.20;;;;;;5054681;28;20163;-69
2023/03/13 08:59:14;;;;;;;2.67;2.47;;;13.70;99.10;;;;;;5054729;28;20253;-68
2023/03/13 09:01:40;;;;;;;0.47;0.47;;;13.80;99.20;;;;;;5054520;28;20201;-68
2023/03/13 09:04:06;;;;;;;1.60;1.47;;;14.00;99.10;;;;;;5054655;28;20466;-69
2023/03/13 09:06:33;;;;;;;0.60;0.60;;;14.00;98.80;;;;;;5054848;28;20744;-69
2023/03/13 09:08:59;;;;;;;0.70;0.60;;;14.10;98.90;;;;;;5054298;28;20401;-69
2023/03/13 09:11:26;;;;;;;0.40;0.40;;;14.20;98.70;;;;;;5054111;28;21016;-69
2023/03/13 09:13:54;;;;;;;0.40;0.40;;;14.40;98.50;;;;;;5054494;28;20421;-69
2023/03/13 09:16:21;;;;;;;0.93;0.60;;;14.60;97.90;;;;;;5036673;28;20722;-69
2023/03/13 09:18:48;;;;;;;0.50;0.50;;;14.80;98.60;;;;;;5054623;28;20397;-69
2023/03/13 09:21:21;;;;;;;1.30;1.10;;;14.80;97.60;;;;;;5053759;28;20415;-69
2023/03/13 09:23:48;;;;;;;0.60;0.60;;;15.00;97.80;;;;;;5054279;28;20428;-69
2023/03/13 09:26:14;;;;;;;1.43;0.67;;;15.40;97.80;;;;;;5053931;28;20407;-69
2023/03/13 09:28:43;;;;;;;0.60;0.60;;;15.90;97.60;;;;;;5053812;28;20451;-69
2023/03/13 09:31:11;;;;;;;0.40;0.40;;;16.40;95.30;;;;;;5053728;28;20502;-69
2023/03/13 09:33:37;;;;;;;0.30;0.30;;;17.20;94.40;;;;;;5053586;28;20450;-69
2023/03/13 09:36:03;;;;;;;0.30;0.30;;;17.90;92.40;;;;;;5053933;28;20406;-69
2023/03/13 09:38:29;;;;;;;0.40;0.40;;;18.60;91.60;;;;;;5054619;28;20427;-69
2023/03/13 09:41:03;;;;;;;0.40;0.40;;;19.50;90.30;;;;;;5053986;28;20914;-69
2023/03/13 09:43:35;;;;;;;0.40;0.40;;;20.00;84.30;;;;;;5036169;28;20440;-69
2023/03/13 09:46:05;;;;;;;0.40;0.40;;;19.80;83.60;;;;;;5036276;28;20504;-69
2023/03/13 09:48:34;;;;;;;0.40;0.40;;;19.70;83.20;;;;;;5053605;28;20394;-69
2023/03/13 09:51:06;;;;;;;0.40;0.40;;;20.00;83.40;;;;;;5052536;28;20446;-70
2023/03/13 09:53:43;;;;;;;0.30;0.30;;;21.30;81.50;;;;;;5053866;28;20787;-69
2023/03/13 09:56:16;;;;;;;0.40;0.40;;;22.60;76.70;;;;;;5054013;28;20397;-70
2023/03/13 09:58:52;;;;;;;0.70;0.40;;;23.30;73.80;;;;;;5054020;28;20379;-69
2023/03/13 10:01:24;;;;;;;0.30;0.30;;;23.50;68.40;;;;;;5035648;28;20402;-70
2023/03/13 10:04:11;;;;;;;0.50;0.50;;;23.40;65.30;;;;;;5053808;28;20839;-69
2023/03/13 10:06:43;;;;;;;0.30;0.30;;;21.50;69.90;;;;;;5053790;28;20401;-69
2023/03/13 10:09:25;;;;;;;0.50;0.50;;;21.30;72.10;;;;;;5053904;28;20851;-70
2023/03/13 10:12:26;;;;;;;0.40;0.40;;;21.40;70.30;;;;;;5053370;28;20558;-69
2023/03/13 10:15:03;;;;;;;0.40;0.40;;;21.60;70.60;;;;;;5048052;28;20513;-69
2023/03/13 10:17:37;;;;;;;0.40;0.40;;;22.10;69.40;;;;;;5053771;28;20404;-70
2023/03/13 10:20:20;;;;;;;0.40;0.40;;;21.90;69.00;;;;;;5053432;28;20780;-69
2023/03/13 10:22:47;;;;;;;0.40;0.40;;;21.40;69.80;;;;;;5053350;28;20785;-69
2023/03/13 10:25:34;;;;;;;0.30;0.30;;;20.90;70.40;;;;;;5053684;28;20404;-69
2023/03/13 10:28:01;;;;;;;0.40;0.40;;;20.70;72.00;;;;;;5035220;28;20479;-69
2023/03/13 10:30:30;;;;;;;0.50;0.40;;;20.70;71.70;;;;;;5052952;28;20590;-71
2023/03/13 10:33:13;;;;;;;0.30;0.30;;;20.30;73.60;;;;;;5053056;28;20451;-70
2023/03/13 10:35:41;;;;;;;0.30;0.30;;;20.30;73.40;;;;;;5053610;28;20384;-69
2023/03/13 10:38:18;;;;;;;0.40;0.40;;;20.40;75.60;;;;;;5053610;28;20908;-69
2023/03/13 10:40:59;;;;;;;1.03;0.40;;;20.80;74.50;;;;;;5052856;28;20403;-69
2023/03/13 10:43:26;;;;;;;0.93;0.50;;;21.10;71.90;;;;;;5053256;28;20430;-69
2023/03/13 10:45:52;;;;;;;0.30;0.30;;;21.20;70.10;;;;;;5053241;28;20420;-69
2023/03/13 10:48:24;;;;;;;0.40;0.40;;;20.60;71.00;;;;;;5053469;28;20406;-69
2023/03/13 10:50:52;;;;;;;0.40;0.40;;;20.60;72.00;;;;;;5053034;28;20448;-69
2023/03/13 10:53:35;;;;;;;0.30;0.30;;;20.60;72.70;;;;;;5052940;28;20422;-69
2023/03/13 10:56:11;;;;;;;0.30;0.30;;;20.70;72.40;;;;;;5053250;28;20400;-69
2023/03/13 10:58:47;;;;;;;0.40;0.30;;;20.90;74.30;;;;;;5053066;28;20777;-69
2023/03/13 11:01:27;;;;;;;0.40;0.40;;;21.10;71.60;;;;;;5053198;28;20397;-70
2023/03/13 11:03:55;;;;;;;0.30;0.30;;;21.30;71.10;;;;;;5056842;28;20460;-69
2023/03/13 11:06:21;;;;;;;0.40;0.40;;;21.10;70.40;;;;;;5057031;28;20935;-69
2023/03/13 11:08:47;;;;;;;0.40;0.40;;;20.40;71.80;;;;;;5056591;28;20434;-69
2023/03/13 11:11:18;;;;;;;0.60;0.60;;;20.00;71.90;;;;;;5056245;28;20212;-69
2023/03/13 11:13:45;;;;;;;0.73;0.47;;;19.60;72.70;;;;;;5056606;28;20189;-69
2023/03/13 11:16:20;;;;;;;0.40;0.40;;;19.20;74.00;;;;;;5056828;28;20492;-69
2023/03/13 11:18:51;;;;;;;0.30;0.30;;;18.80;75.60;;;;;;5056651;28;20959;-69
2023/03/13 11:21:24;;;;;;;0.30;0.30;;;18.80;76.30;;;;;;5056093;28;20408;-69
2023/03/13 11:24:00;;;;;;;0.40;0.40;;;18.80;75.70;;;;;;5056838;28;20434;-69
2023/03/13 11:26:43;;;;;;;0.30;0.30;;;18.80;77.30;;;;;;5056493;28;20397;-69
2023/03/13 11:29:11;;;;;;;0.30;0.30;;;18.70;76.40;;;;;;5056485;28;20408;-69
2023/03/13 11:31:57;;;;;;;0.40;0.40;;;18.50;77.30;;;;;;5055949;28;20473;-69
2023/03/13 11:34:37;;;;;;;0.30;0.30;;;18.50;76.20;;;;;;5055907;28;20498;-69
2023/03/13 11:37:07;;;;;;;0.40;0.40;;;18.50;76.20;;;;;;5056113;28;20471;-69
2023/03/13 11:39:51;;;;;;;0.30;0.30;;;18.50;76.00;;;;;;5056259;28;20460;-69
2023/03/13 11:42:23;;;;;;;0.40;0.40;;;18.40;77.20;;;;;;5056174;28;20396;-69
2023/03/13 11:45:21;;;;;;;0.30;0.30;;;18.40;75.80;;;;;;5056295;28;20433;-69
2023/03/13 11:47:58;;;;;;;0.30;0.30;;;18.50;77.40;;;;;;5056126;28;20485;-69
2023/03/13 11:50:35;;;;;;;0.30;0.30;;;18.50;77.70;;;;;;5055855;28;20473;-69
2023/03/13 11:53:13;;;;;;;0.30;0.30;;;18.60;76.80;;;;;;5056301;28;20426;-69
2023/03/13 11:56:03;;;;;;;0.40;0.40;;;18.70;75.90;;;;;;5038388;28;20894;-69
2023/03/13 11:58:51;;;;;;;0.37;0.37;;;19.00;76.60;;;;;;5055944;28;20897;-69
2023/03/13 12:01:19;;;;;;;0.50;0.50;;;19.10;75.00;;;;;;5055459;28;20461;-69
2023/03/13 12:04:06;;;;;;;9.93;0.73;;;19.20;73.90;;;;;;5055618;28;20434;-69
2023/03/13 12:06:33;;;;;;;0.30;0.30;;;19.10;74.60;;;;;;5055663;28;20395;-69
2023/03/13 12:09:36;;;;;;;0.40;0.40;;;19.10;73.30;;;;;;5055638;28;20411;-69
2023/03/13 12:12:26;;;;;;;0.50;0.50;;;19.30;75.10;;;;;;5055063;28;20407;-69
2023/03/13 12:15:20;;;;;;;0.30;0.30;;;19.30;73.10;;;;;;5054940;28;20395;-69
2023/03/13 12:17:51;;;;;;;0.43;0.43;;;19.50;72.70;;;;;;5055718;28;20394;-69
2023/03/13 12:20:44;;;;;;;0.30;0.30;;;19.50;71.90;;;;;;5055679;28;20399;-69
2023/03/13 12:23:28;;;;;;;0.40;0.40;;;19.20;72.70;;;;;;5055379;28;20421;-69
2023/03/13 12:25:57;;;;;;;0.30;0.30;;;19.20;71.40;;;;;;5055657;28;20491;-69
2023/03/13 12:28:33;;;;;;;0.30;0.30;;;19.20;72.50;;;;;;5055624;28;20396;-69
2023/03/13 12:31:27;;;;;;;0.30;0.30;;;19.30;71.80;;;;;;5054762;28;20526;-69
2023/03/13 12:34:15;;;;;;;0.40;0.40;;;19.30;71.50;;;;;;5050119;28;20460;-69
2023/03/13 12:37:01;;;;;;;0.30;0.30;;;19.20;72.40;;;;;;5055464;28;20415;-69
2023/03/13 12:39:52;;;;;;;0.30;0.30;;;19.30;72.30;;;;;;5055402;28;20940;-69
2023/03/13 12:42:50;;;;;;;0.40;0.40;;;19.40;72.40;;;;;;5054972;28;20399;-69
2023/03/13 12:45:23;;;;;;;1.10;1.00;;;19.40;71.70;;;;;;5055360;28;20380;-69
2023/03/13 12:47:54;;;;;;;0.50;0.50;;;19.50;72.90;;;;;;5054724;28;20411;-69
2023/03/13 12:50:35;;;;;;;0.50;0.50;;;19.50;70.90;;;;;;5054535;28;20448;-69
2023/03/13 12:53:26;;;;;;;0.37;0.37;;;19.60;70.50;;;;;;5054713;28;20431;-69
2023/03/13 12:56:27;;;;;;;0.30;0.30;;;19.70;69.30;;;;;;5054582;28;20403;-69
2023/03/13 12:59:05;;;;;;;0.40;0.40;;;19.70;68.40;;;;;;5045377;28;20849;-69
2023/03/13 13:01:40;;;;;;;0.30;0.30;;;19.70;68.20;;;;;;5036457;28;20428;-69
2023/03/13 13:04:18;;;;;;;0.40;0.40;;;19.60;67.80;;;;;;5037140;28;20447;-69